Etusivu
METAR-TAF:

METAR-TAF

Lentoasemat :

Dübendorf, Sveitsi

Leveyspiiri: 47-23-55N, Pituuspiiri: 8-38-53E, korkeus merenpinnasta: 448 m

Tämänhetkinen sää

Tämä raportti tehtiin 32 minuuttia sitten, kello 21.50 UTC
Tuuli 4 kn idästä/kaakosta
Lämpötila 2°C
Kosteus 87%
Ilmanpaine 1016 hPa
Näkyvyys 10 km tai enemmän
Muutamia pilviä 3000 ft:n korkeudessa
Hajonneita pilviä 15000 ft:n korkeudessa

METAR: LSMD 182150Z AUTO 12004KT 9999NDV FEW030 BKN150 02/00 Q1016 RMK

Aika: 23:22 (22:22 UTC)


TAF: puuttuu

Säähavainnot ja -ennusteet yli 4000 lentoasemalta (METAR- ja TAF-raportit).

Käytössä olevat sääasemat on merkitty karttaan keltaisilla ja punaisilla pisteillä.

Aseta hiiri pisteen päälle nähdäksesi sääaseman nimen.

Klikkaa sitten nähdäksesi säähavainnot ja -ennusteet.

Kartan vaihtaminen: klikkaa mustalla rastilla varustettuja vihreitä pisteitä, niin voit zoomata sisään; viivalla varustettua vihreää pistettä, niin voit zoomata ulos tai vihreitä nuolia, niin pääset viereisille kartoille.


METAR-TAF: